createdAt,value
2023-05-15T00:00:56.241Z,2.40
2023-05-15T00:01:56.280Z,2.10
2023-05-15T00:02:56.265Z,2.00
2023-05-15T00:03:56.243Z,2.10
2023-05-15T00:04:56.231Z,2.00
2023-05-15T00:05:56.234Z,2.00
2023-05-15T00:06:56.259Z,2.30
2023-05-15T00:07:56.183Z,2.10
2023-05-15T00:08:56.201Z,1.80
2023-05-15T00:09:56.165Z,2.10
2023-05-15T00:11:01.689Z,2.30
2023-05-15T00:11:56.140Z,2.20
2023-05-15T00:12:56.109Z,1.90
2023-05-15T00:13:56.114Z,1.90
2023-05-15T00:14:56.106Z,2.10
2023-05-15T00:15:56.120Z,2.30
2023-05-15T00:16:56.060Z,2.20
2023-05-15T00:17:56.122Z,2.20
2023-05-15T00:18:56.071Z,2.00
2023-05-15T00:19:56.068Z,2.20
2023-05-15T00:20:56.005Z,2.20
2023-05-15T00:21:56.019Z,2.40
2023-05-15T00:22:56.011Z,2.30
2023-05-15T00:23:55.995Z,2.10
2023-05-15T00:24:55.989Z,2.70
2023-05-15T00:25:56.026Z,2.30
2023-05-15T00:26:55.947Z,2.10
2023-05-15T00:27:55.970Z,2.20
2023-05-15T00:28:55.920Z,2.20
2023-05-15T00:29:55.937Z,2.10
2023-05-15T00:30:55.990Z,1.90
2023-05-15T00:31:56.035Z,1.70
2023-05-15T00:32:55.913Z,1.60
2023-05-15T00:33:55.894Z,1.90
2023-05-15T00:34:55.857Z,1.70
2023-05-15T00:35:55.891Z,1.50
2023-05-15T00:36:55.866Z,1.70
2023-05-15T00:37:55.851Z,1.70
2023-05-15T00:38:55.837Z,1.70
2023-05-15T00:39:55.838Z,1.80
2023-05-15T00:40:55.803Z,1.80
2023-05-15T00:41:55.834Z,2.00
2023-05-15T00:42:55.773Z,2.00
2023-05-15T00:43:55.813Z,2.10
2023-05-15T00:44:55.750Z,2.30
2023-05-15T00:45:55.766Z,2.50
2023-05-15T00:46:55.827Z,1.90
2023-05-15T00:47:55.778Z,2.30
2023-05-15T00:48:55.704Z,1.80
2023-05-15T00:49:55.724Z,1.90
2023-05-15T00:50:55.702Z,1.60
2023-05-15T00:51:55.696Z,1.90
2023-05-15T00:52:55.687Z,1.40
2023-05-15T00:53:55.720Z,1.70
2023-05-15T00:54:55.648Z,1.70
2023-05-15T00:55:55.655Z,1.70
2023-05-15T00:56:55.633Z,1.70
2023-05-15T00:57:55.643Z,1.60
2023-05-15T00:58:55.627Z,1.90
2023-05-15T00:59:55.624Z,1.50
2023-05-15T01:00:55.625Z,1.70
2023-05-15T01:01:55.628Z,1.60
2023-05-15T01:02:55.615Z,1.80
2023-05-15T01:03:55.607Z,1.70
2023-05-15T01:04:55.549Z,2.10
2023-05-15T01:05:55.557Z,1.90
2023-05-15T01:06:55.524Z,1.80
2023-05-15T01:07:55.526Z,1.60
2023-05-15T01:08:55.504Z,1.70
2023-05-15T01:09:55.546Z,1.60
2023-05-15T01:10:55.472Z,1.60
2023-05-15T01:11:55.483Z,1.70
2023-05-15T01:12:55.439Z,1.80
2023-05-15T01:13:55.522Z,1.70
2023-05-15T01:14:55.442Z,1.50
2023-05-15T01:15:55.440Z,1.60
2023-05-15T01:16:55.410Z,1.60
2023-05-15T01:17:55.465Z,1.60
2023-05-15T01:18:55.458Z,1.50
2023-05-15T01:19:55.492Z,1.60
2023-05-15T01:20:55.403Z,1.90
2023-05-15T01:21:55.411Z,1.60
2023-05-15T01:22:55.342Z,1.70
2023-05-15T01:23:55.392Z,1.60
2023-05-15T01:24:55.324Z,1.80
2023-05-15T01:25:55.338Z,1.90
2023-05-15T01:26:55.294Z,2.00
2023-05-15T01:27:55.324Z,1.90
2023-05-15T01:28:55.282Z,1.50
2023-05-15T01:29:55.283Z,1.70
2023-05-15T01:30:55.255Z,1.70
2023-05-15T01:31:55.361Z,1.50
2023-05-15T01:32:55.300Z,1.70
2023-05-15T01:33:55.233Z,1.60
2023-05-15T01:34:55.201Z,1.90
2023-05-15T01:35:55.219Z,1.80
2023-05-15T01:36:55.209Z,1.70
2023-05-15T01:37:55.197Z,1.80
2023-05-15T01:38:55.157Z,1.70
2023-05-15T01:39:55.169Z,1.60
2023-05-15T01:40:55.144Z,1.60
2023-05-15T01:41:55.146Z,1.70
2023-05-15T01:42:55.139Z,1.80
2023-05-15T01:43:55.135Z,1.50
2023-05-15T01:44:55.109Z,1.90
2023-05-15T01:45:55.136Z,2.00
2023-05-15T01:46:55.111Z,1.80
2023-05-15T01:47:55.128Z,1.90
2023-05-15T01:48:55.063Z,2.00
2023-05-15T01:49:55.071Z,1.70
2023-05-15T01:50:55.021Z,2.00
2023-05-15T01:51:55.070Z,2.10
2023-05-15T01:52:55.003Z,2.10
2023-05-15T01:53:55.039Z,1.90
2023-05-15T01:54:54.980Z,1.90
2023-05-15T01:55:55.005Z,2.10
2023-05-15T01:56:54.959Z,1.80
2023-05-15T01:57:54.974Z,2.50
2023-05-15T01:58:54.973Z,2.10
2023-05-15T01:59:54.963Z,2.40
2023-05-15T02:00:54.926Z,2.30
2023-05-15T02:01:55.008Z,2.30
2023-05-15T02:02:54.978Z,2.50
2023-05-15T02:03:55.010Z,2.20
2023-05-15T02:04:54.888Z,2.30
2023-05-15T02:05:54.882Z,2.40
2023-05-15T02:06:54.852Z,2.20
2023-05-15T02:07:54.906Z,2.30
2023-05-15T02:08:54.830Z,2.30
2023-05-15T02:09:54.885Z,2.00
2023-05-15T02:10:54.828Z,2.20
2023-05-15T02:11:54.821Z,2.50
2023-05-15T02:12:54.783Z,2.30
2023-05-15T02:13:54.806Z,1.80
2023-05-15T02:14:54.795Z,1.80
2023-05-15T02:15:54.918Z,1.70
2023-05-15T02:16:54.758Z,1.60
2023-05-15T02:17:54.811Z,1.50
2023-05-15T02:18:54.837Z,1.80
2023-05-15T02:19:54.750Z,1.60
2023-05-15T02:20:54.728Z,1.80
2023-05-15T02:21:54.711Z,1.90
2023-05-15T02:22:54.679Z,1.50
2023-05-15T02:23:54.690Z,2.00
2023-05-15T02:24:54.657Z,1.70
2023-05-15T02:25:54.666Z,1.70
2023-05-15T02:26:54.661Z,1.70
2023-05-15T02:27:54.648Z,1.70
2023-05-15T02:28:54.605Z,1.80
2023-05-15T02:29:54.638Z,1.70
2023-05-15T02:30:54.592Z,1.70
2023-05-15T02:31:54.698Z,1.90
2023-05-15T02:32:54.615Z,1.70
2023-05-15T02:33:54.611Z,1.90
2023-05-15T02:34:54.566Z,1.70
2023-05-15T02:35:54.584Z,1.70
2023-05-15T02:36:54.536Z,1.70
2023-05-15T02:37:54.550Z,1.80
2023-05-15T02:38:54.502Z,2.10
2023-05-15T02:39:54.557Z,2.30
2023-05-15T02:40:54.484Z,2.40
2023-05-15T02:41:54.492Z,1.90
2023-05-15T02:42:54.516Z,2.00
2023-05-15T02:43:54.479Z,2.20
2023-05-15T02:44:54.437Z,2.20
2023-05-15T02:45:54.608Z,1.90
2023-05-15T02:46:54.544Z,2.40
2023-05-15T02:47:54.490Z,2.00
2023-05-15T02:48:54.412Z,2.30
2023-05-15T02:49:54.422Z,2.10
2023-05-15T02:50:54.385Z,2.20
2023-05-15T02:51:54.395Z,2.20
2023-05-15T02:52:54.355Z,2.10
2023-05-15T02:53:54.385Z,2.20
2023-05-15T02:54:54.320Z,2.20
2023-05-15T02:55:54.338Z,2.10
2023-05-15T02:56:54.317Z,2.10
2023-05-15T02:57:54.327Z,2.30
2023-05-15T02:58:54.284Z,2.10
2023-05-15T02:59:54.342Z,2.20
2023-05-15T03:00:54.378Z,2.10
2023-05-15T03:01:54.282Z,2.10
2023-05-15T03:02:54.268Z,2.20
2023-05-15T03:03:54.298Z,1.90
2023-05-15T03:04:54.443Z,2.20
2023-05-15T03:05:54.202Z,2.00
2023-05-15T03:06:54.280Z,2.10
2023-05-15T03:07:54.190Z,2.10
2023-05-15T03:08:54.212Z,2.00
2023-05-15T03:09:54.163Z,2.40
2023-05-15T03:10:54.230Z,2.20
2023-05-15T03:11:54.140Z,2.20
2023-05-15T03:12:54.161Z,2.20
2023-05-15T03:13:54.131Z,2.40
2023-05-15T03:14:54.127Z,2.20
2023-05-15T03:15:54.150Z,2.10
2023-05-15T03:16:54.159Z,2.00
2023-05-15T03:17:54.136Z,2.40
2023-05-15T03:18:54.122Z,2.20
2023-05-15T03:19:54.055Z,2.10
2023-05-15T03:20:54.074Z,2.10
2023-05-15T03:21:54.056Z,2.10
2023-05-15T03:22:54.046Z,1.80
2023-05-15T03:23:54.011Z,2.00
2023-05-15T03:24:54.035Z,2.00
2023-05-15T03:25:53.984Z,1.90
2023-05-15T03:26:54.009Z,1.80
2023-05-15T03:27:53.982Z,2.00
2023-05-15T03:28:53.991Z,1.80
2023-05-15T03:29:53.951Z,1.90
2023-05-15T03:30:53.960Z,2.00
2023-05-15T03:31:54.064Z,2.00
2023-05-15T03:32:54.027Z,1.80
2023-05-15T03:33:53.927Z,1.80
2023-05-15T03:34:53.924Z,2.00
2023-05-15T03:35:53.891Z,1.80
2023-05-15T03:36:53.898Z,2.00
2023-05-15T03:37:53.861Z,1.80
2023-05-15T03:38:53.881Z,1.90
2023-05-15T03:39:53.848Z,1.90
2023-05-15T03:40:53.857Z,2.10
2023-05-15T03:41:53.842Z,2.10
2023-05-15T03:42:53.853Z,2.00
2023-05-15T03:43:53.791Z,2.20
2023-05-15T03:44:53.808Z,2.10
2023-05-15T03:45:53.806Z,2.10
2023-05-15T03:46:53.872Z,2.00
2023-05-15T03:47:53.856Z,1.80
2023-05-15T03:48:53.774Z,2.00
2023-05-15T03:49:53.745Z,2.00
2023-05-15T03:50:53.734Z,2.20
2023-05-15T03:51:53.726Z,2.20
2023-05-15T03:52:53.721Z,2.00
2023-05-15T03:53:53.686Z,2.30
2023-05-15T03:54:53.694Z,2.20
2023-05-15T03:55:53.670Z,2.10
2023-05-15T03:56:53.673Z,2.50
2023-05-15T03:57:53.667Z,2.00
2023-05-15T03:58:53.669Z,2.20
2023-05-15T03:59:53.619Z,2.00
2023-05-15T04:00:53.626Z,2.40
2023-05-15T04:02:04.053Z,2.10
2023-05-15T04:02:53.701Z,2.10
2023-05-15T04:03:53.609Z,2.30
2023-05-15T04:04:53.617Z,2.20
2023-05-15T04:05:53.557Z,2.30
2023-05-15T04:06:53.573Z,2.20
2023-05-15T04:07:53.551Z,2.30
2023-05-15T04:08:53.541Z,2.10
2023-05-15T04:09:53.524Z,2.40
2023-05-15T04:10:53.520Z,2.10
2023-05-15T04:11:53.498Z,1.90
2023-05-15T04:12:53.524Z,2.10
2023-05-15T04:13:53.468Z,2.20
2023-05-15T04:14:53.478Z,2.00
2023-05-15T04:15:53.497Z,2.40
2023-05-15T04:16:53.535Z,2.10
2023-05-15T04:17:53.514Z,2.20
2023-05-15T04:18:53.486Z,1.90
2023-05-15T04:19:53.397Z,2.20
2023-05-15T04:20:53.410Z,2.20
2023-05-15T04:21:53.393Z,2.20
2023-05-15T04:22:53.391Z,2.40
2023-05-15T04:23:53.355Z,2.50
2023-05-15T04:24:53.372Z,2.40
2023-05-15T04:25:53.336Z,2.30
2023-05-15T04:26:53.390Z,2.40
2023-05-15T04:27:53.360Z,2.20
2023-05-15T04:29:03.392Z,2.20
2023-05-15T04:29:53.299Z,2.00
2023-05-15T04:30:53.331Z,2.20
2023-05-15T04:31:53.325Z,2.20
2023-05-15T04:32:53.379Z,2.20
2023-05-15T04:33:53.286Z,2.40
2023-05-15T04:34:53.276Z,2.10
2023-05-15T04:35:53.223Z,2.00
2023-05-15T04:36:53.238Z,2.30
2023-05-15T04:37:53.216Z,2.30
2023-05-15T04:38:53.221Z,2.40
2023-05-15T04:39:53.218Z,2.10
2023-05-15T04:40:53.193Z,2.10
2023-05-15T04:41:53.175Z,2.40
2023-05-15T04:42:53.183Z,1.90
2023-05-15T04:43:53.137Z,2.30
2023-05-15T04:44:53.164Z,2.30
2023-05-15T04:45:53.164Z,2.40
2023-05-15T04:46:53.135Z,2.20
2023-05-15T04:47:53.143Z,2.00
2023-05-15T04:48:53.112Z,2.00
2023-05-15T04:49:53.076Z,2.20
2023-05-15T04:50:53.082Z,2.00
2023-05-15T04:51:53.072Z,2.10
2023-05-15T04:52:53.081Z,1.70
2023-05-15T04:53:53.036Z,2.00
2023-05-15T04:54:53.079Z,1.80
2023-05-15T04:55:53.007Z,1.90
2023-05-15T04:56:53.021Z,1.90
2023-05-15T04:57:53.005Z,2.20
2023-05-15T04:58:53.005Z,2.00
2023-05-15T04:59:52.962Z,2.10
2023-05-15T05:00:52.979Z,2.10
2023-05-15T05:01:52.995Z,2.00
2023-05-15T05:02:52.992Z,1.90
2023-05-15T05:03:53.097Z,2.30
2023-05-15T05:04:52.948Z,2.50
2023-05-15T05:05:52.896Z,2.20
2023-05-15T05:06:52.911Z,2.30
2023-05-15T05:07:52.894Z,2.30
2023-05-15T05:08:52.902Z,2.10
2023-05-15T05:09:52.872Z,2.10
2023-05-15T05:10:52.881Z,2.40
2023-05-15T05:11:52.839Z,2.00
2023-05-15T05:12:52.846Z,2.30
2023-05-15T05:13:52.815Z,2.40
2023-05-15T05:14:52.827Z,2.30
2023-05-15T05:15:52.841Z,2.10
2023-05-15T05:16:52.801Z,2.40
2023-05-15T05:17:52.815Z,2.00
2023-05-15T05:18:52.837Z,2.40
2023-05-15T05:19:52.762Z,2.40
2023-05-15T05:20:52.759Z,2.30
2023-05-15T05:21:52.745Z,2.40
2023-05-15T05:22:52.752Z,2.40
2023-05-15T05:23:52.718Z,2.30
2023-05-15T05:24:52.729Z,2.10
2023-05-15T05:25:52.682Z,2.40
2023-05-15T05:26:52.694Z,2.30
2023-05-15T05:27:52.685Z,2.30
2023-05-15T05:28:52.688Z,2.70
2023-05-15T05:29:52.681Z,2.30
2023-05-15T05:30:52.662Z,2.40
2023-05-15T05:31:52.777Z,2.40
2023-05-15T05:32:52.754Z,2.60
2023-05-15T05:33:52.729Z,2.30
2023-05-15T05:34:52.610Z,2.70
2023-05-15T05:35:52.576Z,2.30
2023-05-15T05:36:52.594Z,2.20
2023-05-15T05:37:52.570Z,2.10
2023-05-15T05:38:52.565Z,2.50
2023-05-15T05:39:52.552Z,2.50
2023-05-15T05:40:52.542Z,2.40
2023-05-15T05:41:52.513Z,2.30
2023-05-15T05:42:52.523Z,2.60
2023-05-15T05:43:52.487Z,2.70
2023-05-15T05:44:52.490Z,2.30
2023-05-15T05:45:52.486Z,2.50
2023-05-15T05:46:52.506Z,2.60
2023-05-15T05:47:52.482Z,2.30
2023-05-15T05:48:52.448Z,2.30
2023-05-15T05:49:52.438Z,2.20
2023-05-15T05:50:52.444Z,2.20
2023-05-15T05:51:52.429Z,2.30
2023-05-15T05:52:52.417Z,2.40
2023-05-15T05:53:52.417Z,2.40
2023-05-15T05:54:52.385Z,2.30
2023-05-15T05:55:52.349Z,2.60
2023-05-15T05:56:52.367Z,2.20
2023-05-15T05:57:52.347Z,2.40
2023-05-15T05:58:52.364Z,2.40
2023-05-15T05:59:52.308Z,2.30
2023-05-15T06:00:52.324Z,2.30
2023-05-15T06:01:52.301Z,2.40
2023-05-15T06:02:52.479Z,2.50
2023-05-15T06:03:52.366Z,2.40
2023-05-15T06:04:52.776Z,2.40
2023-05-15T06:05:52.249Z,2.30
2023-05-15T06:06:52.250Z,2.40
2023-05-15T06:07:52.219Z,2.50
2023-05-15T06:08:54.191Z,2.30
2023-05-15T06:09:52.222Z,2.50
2023-05-15T06:10:52.220Z,2.30
2023-05-15T06:11:52.176Z,2.30
2023-05-15T06:12:52.209Z,2.40
2023-05-15T06:13:52.188Z,2.40
2023-05-15T06:14:52.161Z,2.60
2023-05-15T06:15:52.161Z,2.60
2023-05-15T06:16:52.160Z,2.60
2023-05-15T06:17:52.177Z,2.80
2023-05-15T06:18:52.141Z,2.40
2023-05-15T06:19:52.081Z,2.30
2023-05-15T06:20:52.104Z,2.60
2023-05-15T06:21:52.091Z,2.60
2023-05-15T06:22:52.076Z,2.40
2023-05-15T06:23:52.034Z,2.50
2023-05-15T06:24:52.058Z,2.70
2023-05-15T06:25:52.047Z,2.40
2023-05-15T06:26:52.521Z,2.60
2023-05-15T06:27:52.022Z,3.20
2023-05-15T06:28:52.010Z,2.30
2023-05-15T06:29:51.988Z,2.60
2023-05-15T06:30:52.006Z,2.80
2023-05-15T06:31:51.952Z,2.40
2023-05-15T06:32:51.976Z,2.70
2023-05-15T06:33:51.950Z,2.50
2023-05-15T06:34:51.971Z,2.60
2023-05-15T06:35:51.907Z,3.00
2023-05-15T06:36:51.921Z,3.30
2023-05-15T06:37:51.888Z,2.80
2023-05-15T06:38:51.903Z,2.60
2023-05-15T06:39:51.905Z,3.00
2023-05-15T06:40:51.881Z,2.40
2023-05-15T06:41:51.854Z,2.50
2023-05-15T06:42:51.860Z,3.00
2023-05-15T06:43:51.828Z,2.90
2023-05-15T06:44:51.875Z,2.80
2023-05-15T06:45:51.880Z,3.10
2023-05-15T06:46:51.832Z,3.20
2023-05-15T06:47:51.809Z,3.40
2023-05-15T06:48:51.799Z,2.90
2023-05-15T06:49:51.754Z,2.80
2023-05-15T06:50:51.767Z,3.10
2023-05-15T06:51:51.776Z,2.70
2023-05-15T06:52:51.766Z,2.80
2023-05-15T06:53:51.710Z,3.60
2023-05-15T06:54:51.745Z,3.50
2023-05-15T06:55:51.704Z,3.40
2023-05-15T06:56:51.700Z,3.30
2023-05-15T06:57:51.698Z,3.30
2023-05-15T06:58:51.685Z,3.40
2023-05-15T06:59:51.685Z,3.00
2023-05-15T07:00:53.439Z,3.30
2023-05-15T07:01:51.686Z,3.20
2023-05-15T07:02:51.698Z,4.10
2023-05-15T07:03:51.638Z,4.00
2023-05-15T07:04:51.683Z,3.80
2023-05-15T07:05:51.586Z,3.50
2023-05-15T07:06:51.610Z,3.50
2023-05-15T07:07:51.579Z,3.60
2023-05-15T07:08:51.571Z,3.20
2023-05-15T07:09:51.552Z,3.40
2023-05-15T07:10:51.561Z,3.30
2023-05-15T07:11:51.540Z,3.40
2023-05-15T07:12:51.541Z,3.90
2023-05-15T07:13:52.588Z,3.60
2023-05-15T07:14:51.512Z,3.50
2023-05-15T07:15:51.486Z,3.50
2023-05-15T07:16:51.508Z,4.00
2023-05-15T07:17:51.530Z,3.60
2023-05-15T07:18:51.655Z,3.50
2023-05-15T07:19:51.429Z,3.40
2023-05-15T07:20:51.437Z,3.60
2023-05-15T07:21:51.449Z,3.50
2023-05-15T07:22:56.455Z,4.00
2023-05-15T07:23:51.414Z,3.90
2023-05-15T07:24:51.373Z,4.00
2023-05-15T07:25:51.379Z,6.90
2023-05-15T07:27:51.379Z,7.50
2023-05-15T07:28:51.340Z,9.70
2023-05-15T07:29:51.340Z,8.70
2023-05-15T07:30:51.308Z,8.60
2023-05-15T07:31:51.424Z,6.30
2023-05-15T07:32:51.340Z,6.10
2023-05-15T07:33:51.339Z,9.00
2023-05-15T07:34:51.278Z,10.20
2023-05-15T07:35:51.270Z,9.20
2023-05-15T07:36:51.244Z,10.00
2023-05-15T07:37:51.302Z,8.30
2023-05-15T07:38:51.221Z,10.40
2023-05-15T07:39:51.278Z,11.80
2023-05-15T07:40:51.195Z,11.80
2023-05-15T07:41:51.209Z,11.30
2023-05-15T07:42:51.192Z,11.50
2023-05-15T07:43:51.189Z,11.10
2023-05-15T07:44:51.175Z,11.20
2023-05-15T07:45:51.290Z,12.20
2023-05-15T07:46:51.123Z,11.70
2023-05-15T07:47:51.231Z,11.80
2023-05-15T07:48:51.115Z,11.80
2023-05-15T07:49:51.132Z,11.70
2023-05-15T07:50:51.092Z,11.60
2023-05-15T07:51:51.116Z,12.60
2023-05-15T07:52:51.065Z,12.10
2023-05-15T07:53:51.075Z,11.80
2023-05-15T07:54:51.045Z,12.00
2023-05-15T07:55:51.072Z,12.10
2023-05-15T07:56:51.035Z,12.30
2023-05-15T07:57:54.046Z,12.10
2023-05-15T07:58:51.027Z,13.40
2023-05-15T07:59:51.021Z,11.50
2023-05-15T08:00:51.010Z,12.50
2023-05-15T08:01:50.992Z,12.00
2023-05-15T08:02:51.030Z,12.20
2023-05-15T08:03:51.087Z,11.40
2023-05-15T08:04:50.939Z,12.20
2023-05-15T08:05:50.952Z,12.50
2023-05-15T08:06:50.926Z,11.40
2023-05-15T08:07:50.935Z,11.60
2023-05-15T08:08:50.921Z,11.70
2023-05-15T08:09:50.929Z,11.60
2023-05-15T08:10:50.882Z,12.10
2023-05-15T08:11:50.892Z,12.20
2023-05-15T08:12:50.872Z,12.20
2023-05-15T08:13:50.898Z,11.70
2023-05-15T08:14:50.832Z,11.90
2023-05-15T08:15:50.895Z,11.50
2023-05-15T08:16:50.823Z,12.20
2023-05-15T08:17:50.860Z,12.90
2023-05-15T08:18:50.868Z,11.80
2023-05-15T08:19:50.812Z,12.40
2023-05-15T08:20:50.811Z,12.40
2023-05-15T08:21:50.825Z,12.00
2023-05-15T08:22:50.763Z,12.00
2023-05-15T08:23:53.857Z,12.60
2023-05-15T08:24:50.739Z,12.50
2023-05-15T08:25:50.763Z,12.40
2023-05-15T08:26:50.731Z,13.10
2023-05-15T08:27:50.752Z,12.90
2023-05-15T08:28:50.700Z,12.50
2023-05-15T08:29:50.718Z,12.40
2023-05-15T08:30:50.713Z,12.90
2023-05-15T08:31:50.869Z,12.30
2023-05-15T08:32:50.690Z,12.60
2023-05-15T08:33:50.692Z,11.90
2023-05-15T08:34:50.638Z,12.00
2023-05-15T08:35:50.739Z,12.70
2023-05-15T08:36:50.625Z,11.90
2023-05-15T08:37:50.656Z,12.30
2023-05-15T08:38:50.585Z,11.90
2023-05-15T08:39:50.618Z,12.40
2023-05-15T08:40:50.601Z,12.30
2023-05-15T08:41:50.580Z,12.30
2023-05-15T08:42:50.557Z,12.00
2023-05-15T08:43:50.554Z,12.10
2023-05-15T08:44:50.552Z,12.50
2023-05-15T08:45:50.549Z,12.30
2023-05-15T08:46:50.517Z,13.00
2023-05-15T08:47:50.543Z,11.70
2023-05-15T08:48:50.506Z,12.70
2023-05-15T08:49:50.507Z,13.30
2023-05-15T08:50:50.456Z,12.40
2023-05-15T08:51:50.490Z,12.90
2023-05-15T08:52:50.439Z,12.60
2023-05-15T08:53:50.447Z,12.40
2023-05-15T08:54:50.436Z,12.40
2023-05-15T08:55:50.442Z,12.30
2023-05-15T08:56:50.414Z,11.70
2023-05-15T08:57:50.447Z,12.70
2023-05-15T08:58:50.361Z,12.60
2023-05-15T08:59:50.379Z,12.60
2023-05-15T09:00:50.368Z,13.50
2023-05-15T09:01:50.367Z,12.80
2023-05-15T09:02:50.360Z,13.30
2023-05-15T09:03:50.369Z,12.50
2023-05-15T09:04:50.293Z,11.70
2023-05-15T09:05:50.318Z,12.60
2023-05-15T09:06:50.278Z,13.70
2023-05-15T09:07:50.294Z,12.50
2023-05-15T09:08:50.251Z,12.30
2023-05-15T09:09:50.296Z,11.90
2023-05-15T09:10:50.228Z,12.90
2023-05-15T09:11:50.237Z,11.70
2023-05-15T09:12:50.224Z,12.40
2023-05-15T09:13:50.215Z,12.30
2023-05-15T09:14:50.183Z,13.00
2023-05-15T09:15:50.217Z,12.00
2023-05-15T09:16:50.165Z,12.20
2023-05-15T09:17:50.252Z,12.20
2023-05-15T09:18:50.180Z,12.20
2023-05-15T09:19:50.167Z,12.60
2023-05-15T09:20:50.130Z,12.50
2023-05-15T09:21:50.164Z,11.60
2023-05-15T09:22:50.092Z,11.90
2023-05-15T09:23:50.105Z,11.50
2023-05-15T09:24:50.060Z,11.50
2023-05-15T09:25:50.070Z,11.40
2023-05-15T09:26:50.036Z,11.00
2023-05-15T09:27:50.089Z,11.80
2023-05-15T09:28:50.025Z,11.00
2023-05-15T09:29:50.035Z,10.70
2023-05-15T09:30:50.004Z,11.10
2023-05-15T09:31:50.059Z,11.00
2023-05-15T09:32:50.035Z,11.60
2023-05-15T09:33:49.997Z,11.40
2023-05-15T09:34:49.962Z,11.20
2023-05-15T09:35:49.990Z,11.10
2023-05-15T09:36:49.923Z,11.10
2023-05-15T09:37:49.934Z,11.50
2023-05-15T09:38:49.938Z,11.40
2023-05-15T09:39:49.931Z,11.40
2023-05-15T09:40:49.878Z,11.00
2023-05-15T09:41:49.882Z,11.00
2023-05-15T09:42:49.860Z,11.60
2023-05-15T09:43:49.885Z,11.40
2023-05-15T09:44:49.821Z,11.20
2023-05-15T09:45:49.918Z,11.30
2023-05-15T09:46:49.838Z,10.60
2023-05-15T09:47:49.889Z,10.40
2023-05-15T09:48:49.801Z,11.80
2023-05-15T09:49:49.832Z,11.20
2023-05-15T09:50:49.768Z,11.50
2023-05-15T09:51:49.818Z,11.60
2023-05-15T09:52:56.305Z,11.00
2023-05-15T09:53:51.383Z,10.90
2023-05-15T09:54:50.616Z,10.80
2023-05-15T09:55:50.397Z,11.20
2023-05-15T09:56:49.712Z,11.00
2023-05-15T09:57:49.742Z,10.40
2023-05-15T09:58:49.688Z,10.90
2023-05-15T09:59:49.700Z,10.70
2023-05-15T10:00:49.898Z,10.30
2023-05-15T10:01:49.711Z,11.10
2023-05-15T10:02:49.674Z,11.60
2023-05-15T10:03:49.680Z,10.70
2023-05-15T10:04:49.633Z,10.80
2023-05-15T10:05:49.725Z,11.00
2023-05-15T10:06:49.593Z,11.40
2023-05-15T10:07:49.633Z,11.40
2023-05-15T10:08:49.581Z,11.20
2023-05-15T10:09:49.602Z,11.20
2023-05-15T10:10:49.551Z,12.40
2023-05-15T10:11:49.557Z,11.60
2023-05-15T10:12:49.537Z,11.70
2023-05-15T10:13:49.545Z,11.50
2023-05-15T10:14:49.510Z,11.50
2023-05-15T10:15:49.588Z,11.40
2023-05-15T10:16:49.488Z,11.40
2023-05-15T10:17:49.533Z,10.90
2023-05-15T10:18:49.510Z,11.60
2023-05-15T10:19:57.735Z,11.70
2023-05-15T10:20:49.438Z,11.80
2023-05-15T10:21:49.471Z,11.20
2023-05-15T10:22:49.406Z,11.60
2023-05-15T10:23:49.415Z,10.80
2023-05-15T10:24:49.389Z,11.20
2023-05-15T10:25:49.415Z,11.10
2023-05-15T10:26:49.362Z,12.10
2023-05-15T10:27:49.396Z,11.90
2023-05-15T10:28:49.337Z,11.30
2023-05-15T10:29:49.349Z,11.50
2023-05-15T10:30:49.358Z,11.70
2023-05-15T10:31:49.383Z,11.80
2023-05-15T10:32:49.341Z,12.10
2023-05-15T10:33:49.320Z,11.40
2023-05-15T10:34:49.452Z,12.00
2023-05-15T10:35:49.291Z,11.50
2023-05-15T10:36:49.242Z,12.20
2023-05-15T10:37:49.274Z,12.50
2023-05-15T10:38:49.230Z,10.70
2023-05-15T10:39:49.247Z,12.10
2023-05-15T10:40:49.201Z,12.00
2023-05-15T10:41:49.218Z,11.00
2023-05-15T10:42:49.177Z,11.90
2023-05-15T10:43:49.192Z,12.80
2023-05-15T10:44:49.189Z,11.30
2023-05-15T10:45:49.196Z,12.70
2023-05-15T10:46:49.174Z,13.00
2023-05-15T10:47:49.194Z,12.50
2023-05-15T10:48:49.137Z,12.80
2023-05-15T10:49:49.123Z,12.10
2023-05-15T10:50:49.094Z,12.80
2023-05-15T10:51:49.122Z,12.30
2023-05-15T10:52:49.077Z,13.00
2023-05-15T10:53:49.079Z,12.50
2023-05-15T10:54:49.045Z,12.10
2023-05-15T10:55:49.075Z,12.10
2023-05-15T10:56:52.011Z,12.00
2023-05-15T10:57:49.074Z,12.20
2023-05-15T10:58:49.049Z,13.20
2023-05-15T10:59:49.022Z,12.40
2023-05-15T11:00:49.012Z,13.00
2023-05-15T11:01:48.989Z,12.70
2023-05-15T11:02:49.013Z,12.40
2023-05-15T11:03:50.124Z,11.90
2023-05-15T11:04:48.967Z,12.00
2023-05-15T11:05:48.936Z,11.90
2023-05-15T11:06:48.911Z,12.00
2023-05-15T11:07:48.919Z,11.40
2023-05-15T11:08:48.880Z,11.30
2023-05-15T11:09:48.900Z,11.90
2023-05-15T11:10:48.854Z,11.10
2023-05-15T11:11:48.883Z,11.50
2023-05-15T11:12:48.840Z,11.20
2023-05-15T11:13:48.856Z,11.30
2023-05-15T11:14:48.815Z,12.40
2023-05-15T11:15:48.844Z,10.50
2023-05-15T11:16:48.848Z,11.10
2023-05-15T11:17:48.818Z,11.00
2023-05-15T11:18:48.812Z,11.70
2023-05-15T11:19:48.775Z,11.30
2023-05-15T11:20:48.740Z,11.60
2023-05-15T11:21:48.797Z,10.70
2023-05-15T11:22:48.718Z,11.70
2023-05-15T11:23:48.755Z,11.20
2023-05-15T11:24:48.709Z,11.00
2023-05-15T11:25:48.717Z,10.30
2023-05-15T11:26:48.671Z,10.90
2023-05-15T11:27:48.683Z,11.20
2023-05-15T11:28:48.645Z,10.90
2023-05-15T11:29:48.658Z,10.60
2023-05-15T11:30:48.653Z,10.10
2023-05-15T11:31:48.656Z,9.40
2023-05-15T11:32:48.650Z,10.70
2023-05-15T11:33:49.535Z,9.70
2023-05-15T11:34:48.595Z,9.70
2023-05-15T11:35:48.614Z,9.60
2023-05-15T11:36:48.599Z,9.50
2023-05-15T11:37:48.546Z,9.60
2023-05-15T11:38:48.578Z,9.00
2023-05-15T11:39:48.536Z,9.70
2023-05-15T11:40:48.548Z,9.00
2023-05-15T11:41:48.510Z,9.30
2023-05-15T11:42:48.547Z,9.60
2023-05-15T11:43:48.492Z,9.10
2023-05-15T11:44:48.495Z,8.40
2023-05-15T11:45:48.472Z,9.30
2023-05-15T11:46:48.535Z,8.60
2023-05-15T11:47:48.488Z,9.00
2023-05-15T11:48:48.466Z,8.40
2023-05-15T11:49:48.442Z,8.60
2023-05-15T11:50:48.434Z,7.40
2023-05-15T11:51:48.441Z,8.10
2023-05-15T11:52:48.412Z,7.60
2023-05-15T11:53:48.393Z,8.10
2023-05-15T11:54:48.383Z,8.50
2023-05-15T11:55:48.362Z,9.00
2023-05-15T11:56:48.379Z,7.90
2023-05-15T11:57:48.322Z,7.80
2023-05-15T11:58:48.372Z,8.10
2023-05-15T11:59:48.311Z,8.10
2023-05-15T12:00:48.351Z,7.60
2023-05-15T12:01:48.290Z,7.80
2023-05-15T12:02:48.392Z,7.40
2023-05-15T12:03:48.424Z,7.60
2023-05-15T12:04:48.321Z,7.40
2023-05-15T12:05:58.193Z,8.00
2023-05-15T12:06:48.266Z,7.00
2023-05-15T12:07:48.232Z,7.60
2023-05-15T12:08:48.233Z,7.10
2023-05-15T12:09:48.229Z,6.90
2023-05-15T12:10:48.202Z,7.60
2023-05-15T12:11:48.200Z,7.00
2023-05-15T12:12:48.183Z,7.10
2023-05-15T12:13:48.165Z,6.90
2023-05-15T12:14:48.191Z,7.90
2023-05-15T12:15:48.153Z,7.90
2023-05-15T12:16:48.247Z,7.30
2023-05-15T12:17:48.162Z,7.20
2023-05-15T12:18:48.182Z,7.20
2023-05-15T12:19:48.097Z,6.80
2023-05-15T12:20:48.159Z,7.80
2023-05-15T12:21:48.066Z,7.00
2023-05-15T12:22:48.115Z,7.40
2023-05-15T12:23:59.470Z,7.50
2023-05-15T12:24:48.065Z,7.20
2023-05-15T12:25:48.041Z,7.40
2023-05-15T12:26:48.065Z,7.10
2023-05-15T12:27:48.014Z,7.20
2023-05-15T12:28:48.029Z,7.40
2023-05-15T12:29:48.005Z,7.10
2023-05-15T12:30:47.993Z,7.20
2023-05-15T12:31:48.017Z,7.60
2023-05-15T12:32:48.102Z,7.30
2023-05-15T12:33:47.934Z,6.90
2023-05-15T12:34:47.954Z,7.20
2023-05-15T12:35:47.930Z,7.20
2023-05-15T12:36:47.930Z,6.90
2023-05-15T12:37:47.949Z,7.00
2023-05-15T12:38:47.930Z,6.90
2023-05-15T12:39:47.898Z,6.50
2023-05-15T12:40:47.888Z,6.10
2023-05-15T12:41:49.151Z,6.10
2023-05-15T12:42:47.906Z,6.50
2023-05-15T12:43:47.850Z,6.80
2023-05-15T12:44:47.836Z,6.70
2023-05-15T12:45:47.839Z,6.60
2023-05-15T12:46:47.854Z,6.20
2023-05-15T12:47:47.815Z,5.80
2023-05-15T12:48:47.827Z,6.30
2023-05-15T12:49:47.757Z,7.10
2023-05-15T12:50:47.789Z,6.80
2023-05-15T12:51:47.768Z,7.10
2023-05-15T12:52:47.752Z,6.10
2023-05-15T12:53:47.735Z,6.40
2023-05-15T12:54:47.762Z,6.60
2023-05-15T12:55:47.702Z,6.00
2023-05-15T12:56:47.727Z,6.10
2023-05-15T12:57:47.691Z,6.20
2023-05-15T12:58:47.689Z,6.80
2023-05-15T12:59:47.764Z,6.50
2023-05-15T13:00:47.662Z,6.70
2023-05-15T13:01:47.660Z,5.70
2023-05-15T13:02:47.682Z,6.80
2023-05-15T13:03:47.645Z,7.10
2023-05-15T13:04:47.643Z,6.60
2023-05-15T13:05:47.586Z,6.50
2023-05-15T13:06:47.830Z,7.00
2023-05-15T13:07:47.552Z,7.00
2023-05-15T13:08:47.908Z,7.00
2023-05-15T13:09:47.532Z,6.50
2023-05-15T13:10:47.568Z,7.40
2023-05-15T13:11:47.537Z,7.10